createdAt,value
2024-04-25T00:01:13.194Z,1.85
2024-04-25T00:06:16.775Z,2.10
2024-04-25T00:11:23.034Z,1.90
2024-04-25T00:16:26.458Z,2.10
2024-04-25T00:21:29.740Z,2.40
2024-04-25T00:26:33.160Z,1.98
2024-04-25T00:31:37.328Z,1.85
2024-04-25T00:36:40.817Z,2.05
2024-04-25T00:41:44.199Z,1.90
2024-04-25T00:46:51.392Z,1.90
2024-04-25T00:51:54.769Z,2.15
2024-04-25T00:56:58.867Z,1.48
2024-04-25T01:02:06.105Z,1.65
2024-04-25T01:07:11.373Z,2.13
2024-04-25T01:12:15.147Z,1.83
2024-04-25T01:17:18.572Z,1.90
2024-04-25T01:22:22.988Z,2.80
2024-04-25T01:27:27.497Z,2.13
2024-04-25T01:32:32.809Z,2.25
2024-04-25T01:37:36.573Z,2.13
2024-04-25T01:42:40.182Z,2.13
2024-04-25T01:47:43.657Z,2.28
2024-04-25T01:52:47.086Z,2.75
2024-04-25T01:57:50.383Z,2.85
2024-04-25T02:02:53.950Z,2.47
2024-04-25T02:07:57.390Z,2.95
2024-04-25T02:13:00.890Z,2.55
2024-04-25T02:18:04.704Z,2.58
2024-04-25T02:23:26.883Z,2.60
2024-04-25T02:28:32.069Z,3.00
2024-04-25T02:33:35.286Z,3.17
2024-04-25T02:38:40.841Z,3.05
2024-04-25T02:43:44.340Z,2.63
2024-04-25T02:48:48.369Z,2.22
2024-04-25T02:53:51.684Z,2.40
2024-04-25T02:58:54.937Z,2.75
2024-04-25T03:03:58.531Z,2.30
2024-04-25T03:09:01.914Z,2.40
2024-04-25T03:14:05.983Z,2.25
2024-04-25T03:19:09.506Z,2.28
2024-04-25T03:24:15.373Z,2.40
2024-04-25T03:29:19.321Z,1.90
2024-04-25T03:34:22.814Z,2.15
2024-04-25T03:39:26.212Z,2.28
2024-04-25T03:44:29.638Z,2.35
2024-04-25T03:49:33.105Z,1.80
2024-04-25T03:54:36.296Z,2.42
2024-04-25T03:59:39.668Z,2.05
2024-04-25T04:04:43.051Z,1.65
2024-04-25T04:09:46.419Z,2.30
2024-04-25T04:14:49.968Z,2.03
2024-04-25T04:19:53.408Z,2.03
2024-04-25T04:24:57.214Z,2.10
2024-04-25T04:30:00.588Z,1.83
2024-04-25T04:35:04.144Z,2.35
2024-04-25T04:40:08.117Z,1.73
2024-04-25T04:45:13.531Z,1.50
2024-04-25T04:50:20.837Z,1.80
2024-04-25T04:55:28.086Z,1.38
2024-04-25T05:00:34.081Z,1.90
2024-04-25T05:05:37.610Z,1.95
2024-04-25T05:10:41.226Z,1.73
2024-04-25T05:20:49.470Z,1.33
2024-04-25T05:25:53.200Z,1.58
2024-04-25T05:30:56.950Z,1.83
2024-04-25T05:36:03.466Z,1.10
2024-04-25T05:41:07.063Z,1.48
2024-04-25T05:46:12.677Z,1.80
2024-04-25T05:51:16.408Z,1.30
2024-04-25T05:56:19.745Z,1.80
2024-04-25T06:06:25.817Z,1.85
2024-04-25T06:11:30.475Z,1.30
2024-04-25T06:16:33.851Z,1.30
2024-04-25T06:21:42.831Z,1.25
2024-04-25T06:26:46.372Z,1.60
2024-04-25T06:31:51.935Z,1.48
2024-04-25T06:36:55.358Z,1.77
2024-04-25T06:41:59.327Z,1.75
2024-04-25T06:47:04.778Z,1.38
2024-04-25T06:52:10.730Z,1.17
2024-04-25T06:57:16.905Z,1.35
2024-04-25T07:02:21.819Z,1.00
2024-04-25T07:07:27.538Z,1.40
2024-04-25T07:12:32.053Z,1.30
2024-04-25T07:17:36.076Z,1.15
2024-04-25T07:22:39.347Z,1.58
2024-04-25T07:27:42.970Z,1.20
2024-04-25T07:32:46.401Z,0.77
2024-04-25T07:37:49.994Z,1.00
2024-04-25T07:43:02.551Z,1.45
2024-04-25T07:48:10.288Z,1.70
2024-04-25T07:53:16.895Z,1.35
2024-04-25T07:58:22.730Z,1.30
2024-04-25T08:03:28.634Z,1.50
2024-04-25T08:08:31.916Z,2.42
2024-04-25T08:13:35.142Z,3.28
2024-04-25T08:18:40.355Z,3.03
2024-04-25T08:23:43.868Z,1.25
2024-04-25T08:28:48.584Z,4.72
2024-04-25T08:33:51.620Z,1.50
2024-04-25T08:38:55.091Z,1.20
2024-04-25T08:43:59.912Z,1.05
2024-04-25T08:49:03.533Z,1.10
2024-04-25T08:54:07.180Z,2.20
2024-04-25T08:59:10.642Z,1.20
2024-04-25T09:04:20.785Z,2.72
2024-04-25T09:09:25.695Z,1.40
2024-04-25T09:14:30.462Z,1.35
2024-04-25T09:19:33.423Z,1.52
2024-04-25T09:29:39.354Z,1.35
2024-04-25T09:34:42.215Z,3.35
2024-04-25T09:46:57.962Z,2.17
2024-04-25T09:57:25.680Z,3.90
2024-04-25T10:02:31.037Z,1.55
2024-04-25T10:07:34.741Z,2.85
2024-04-25T10:12:37.718Z,1.70
2024-04-25T10:17:41.258Z,1.33
2024-04-25T10:22:44.241Z,1.65
2024-04-25T10:27:58.745Z,1.60
2024-04-25T10:33:03.177Z,1.30
2024-04-25T10:38:06.955Z,2.70
2024-04-25T10:43:09.804Z,2.88
2024-04-25T10:48:13.272Z,2.45
2024-04-25T10:53:16.531Z,1.80
2024-04-25T11:03:22.508Z,1.25
2024-04-25T11:08:29.421Z,4.63
2024-04-25T11:13:32.480Z,3.05
2024-04-25T11:18:36.228Z,2.28
2024-04-25T11:23:40.642Z,1.30
2024-04-25T11:28:46.479Z,1.80
2024-04-25T11:33:51.981Z,1.63
2024-04-25T11:38:56.227Z,2.25
2024-04-25T11:57:34.573Z,1.98
2024-04-25T12:17:39.911Z,1.80
2024-04-25T12:22:43.018Z,2.22
2024-04-25T12:27:48.328Z,2.08
2024-04-25T12:32:51.963Z,2.70
2024-04-25T12:37:57.546Z,1.00
2024-04-25T12:43:07.235Z,1.65
2024-04-25T12:53:19.584Z,1.10
2024-04-25T12:58:25.744Z,1.08
2024-04-25T13:03:30.013Z,1.42
2024-04-25T13:08:35.646Z,1.58
2024-04-25T13:13:39.007Z,1.35
2024-04-25T13:18:44.002Z,1.48
2024-04-25T13:23:50.293Z,1.35
2024-04-25T13:28:56.634Z,1.35
2024-04-25T13:33:59.970Z,1.30
2024-04-25T13:39:05.908Z,1.33
2024-04-25T13:44:09.130Z,1.40
2024-04-25T13:49:12.694Z,1.27
2024-04-25T13:54:15.993Z,1.95
2024-04-25T13:59:23.910Z,1.20
2024-04-25T14:04:27.320Z,1.00
2024-04-25T14:14:34.014Z,0.90
2024-04-25T14:19:37.574Z,1.38
2024-04-25T14:24:41.651Z,0.98
2024-04-25T14:29:45.464Z,0.80
2024-04-25T14:34:49.870Z,1.20
2024-04-25T14:39:53.236Z,1.13
2024-04-25T14:44:56.474Z,0.90
2024-04-25T14:50:02.235Z,1.10
2024-04-25T14:55:06.579Z,1.23
2024-04-25T15:00:10.632Z,1.08
2024-04-25T15:05:14.064Z,1.15
2024-04-25T15:10:19.132Z,1.40
2024-04-25T15:15:24.030Z,1.10
2024-04-25T15:20:27.449Z,1.17
2024-04-25T15:25:30.886Z,1.13
2024-04-25T15:30:35.591Z,1.13
2024-04-25T15:35:41.029Z,0.90
2024-04-25T15:40:44.490Z,0.80
2024-04-25T15:45:47.784Z,0.85
2024-04-25T15:50:51.796Z,0.90
2024-04-25T15:55:58.417Z,1.00
2024-04-25T16:01:01.937Z,0.95
2024-04-25T16:06:05.546Z,1.13
2024-04-25T16:11:08.917Z,1.13
2024-04-25T16:16:12.414Z,1.00
2024-04-25T16:21:15.773Z,0.90
2024-04-25T16:26:19.543Z,1.02
2024-04-25T16:31:22.911Z,0.90
2024-04-25T16:36:29.757Z,1.23
2024-04-25T16:41:33.275Z,1.00
2024-04-25T16:46:38.326Z,1.00
2024-04-25T16:51:41.875Z,1.10
2024-04-25T16:56:45.467Z,0.90
2024-04-25T17:01:48.696Z,1.10
2024-04-25T17:06:54.824Z,0.88
2024-04-25T17:11:58.337Z,0.80
2024-04-25T17:17:04.090Z,0.90
2024-04-25T17:22:13.921Z,0.90
2024-04-25T17:27:22.966Z,0.75
2024-04-25T17:32:28.656Z,0.90
2024-04-25T17:37:32.438Z,0.70
2024-04-25T17:42:35.678Z,0.70
2024-04-25T17:47:42.330Z,1.00
2024-04-25T17:52:49.197Z,1.15
2024-04-25T17:57:54.852Z,0.60
2024-04-25T18:03:00.204Z,0.75
2024-04-25T18:08:03.718Z,0.93
2024-04-25T18:13:07.141Z,0.75
2024-04-25T18:18:10.775Z,0.90
2024-04-25T18:23:14.643Z,0.70
2024-04-25T18:28:21.143Z,0.75
2024-04-25T18:33:24.651Z,0.80
2024-04-25T18:38:28.108Z,0.88
2024-04-25T18:43:31.493Z,0.68
2024-04-25T18:48:38.765Z,0.82
2024-04-25T18:53:45.311Z,0.70
2024-04-25T18:58:48.879Z,0.68
2024-04-25T19:03:54.409Z,0.88
2024-04-25T19:08:57.753Z,0.70
2024-04-25T19:14:04.705Z,0.70
2024-04-25T19:19:08.211Z,0.75
2024-04-25T19:24:11.578Z,0.65
2024-04-25T19:29:19.105Z,0.70
2024-04-25T19:34:24.865Z,0.60
2024-04-25T19:39:28.376Z,0.80
2024-04-25T19:44:32.025Z,0.95
2024-04-25T19:49:38.244Z,0.77
2024-04-25T19:54:41.813Z,0.60
2024-04-25T19:59:45.485Z,0.85
2024-04-25T20:04:49.876Z,0.80
2024-04-25T20:09:53.546Z,1.02
2024-04-25T20:15:00.593Z,0.77
2024-04-25T20:20:26.605Z,0.70
2024-04-25T20:25:30.222Z,0.40
2024-04-25T20:30:33.513Z,0.70
2024-04-25T20:35:36.979Z,0.80
2024-04-25T20:40:40.299Z,1.27
2024-04-25T20:45:43.644Z,1.63
2024-04-25T20:50:47.161Z,1.48
2024-04-25T20:55:50.569Z,1.77
2024-04-25T21:00:54.626Z,3.40
2024-04-25T21:11:01.759Z,4.75
2024-04-25T21:16:05.121Z,7.03
2024-04-25T21:21:08.356Z,6.20
2024-04-25T22:02:19.262Z,9.90
2024-04-25T22:07:22.479Z,8.52
2024-04-25T22:12:25.870Z,5.40
2024-04-25T22:17:29.578Z,5.20
2024-04-25T22:22:33.167Z,4.30
2024-04-25T22:27:41.394Z,2.08
2024-04-25T22:32:44.899Z,1.63
2024-04-25T22:37:48.503Z,1.70
2024-04-25T22:42:52.275Z,1.60
2024-04-25T22:47:55.728Z,1.80
2024-04-25T22:52:59.304Z,1.30
2024-04-25T22:58:02.820Z,1.67
2024-04-25T23:03:06.540Z,1.45
2024-04-25T23:08:10.162Z,2.10
2024-04-25T23:13:13.479Z,1.75
2024-04-25T23:54:30.296Z,1.83
2024-04-25T23:59:33.631Z,1.85
